METAR Data
IDs: Format: Raw Decoded Include TAF

Data at: 1650 UTC 03 Dec 2021

KRBG 031553Z AUTO 36006KT 8SM OVC006 07/06 A3021 RMK AO2 SLP233 T00720056
KRBG 031453Z AUTO 35004KT 10SM OVC006 07/06 A3021 RMK AO2 CIG 005V011 SLP232 T00720061 58004
KRBG 031353Z AUTO 36004KT 5SM BR OVC007 07/06 A3021 RMK AO2 SLP234 T00720061
KRBG 031253Z AUTO 36005KT 10SM OVC009 08/06 A3022 RMK AO2 CIG 007V011 SLP235 T00780061
KRBG 031153Z AUTO 02004KT 10SM OVC008 08/06 A3022 RMK AO2 CIG 007V011 SLP236 T00830061 10100 20083 58007
KRBG 031130Z AUTO 01004KT 10SM BKN008 OVC013 08/06 A3022 RMK AO2 T00830061
KRBG 031053Z AUTO 36007KT 10SM OVC014 08/07 A3023 RMK AO2 SLP239 T00830067
KRBG 031033Z AUTO 36007KT 10SM OVC014 08/07 A3024 RMK AO2 T00830067
KRBG 030953Z AUTO 36007KT 10SM OVC015 09/07 A3024 RMK AO2 SLP241 T00890072
KRBG 030853Z AUTO 36007KT 10SM OVC015 10/08 A3024 RMK AO2 SLP242 T01000083 55002
KRBG 030818Z AUTO 01004KT 9SM OVC015 10/09 A3024 RMK AO2 T01000089
KRBG 030753Z AUTO 00000KT 8SM FEW008 OVC014 10/09 A3024 RMK AO2 SLP243 T01000089 401110078
KRBG 030749Z AUTO 00000KT 8SM FEW008 OVC014 10/09 A3024 RMK AO2
KRBG 030732Z AUTO 00000KT 8SM BKN008 OVC011 10/09 A3025 RMK AO2 CIG 005V011 T01000094
KRBG 030706Z AUTO 18003KT 7SM FEW006 OVC013 10/09 A3024 RMK AO2 T01000089
KRBG 030653Z AUTO 00000KT 8SM FEW006 OVC015 10/09 A3025 RMK AO2 SLP245 T01000089
KRBG 030634Z AUTO 00000KT 8SM FEW007 OVC015 10/09 A3025 RMK AO2 T01000094
KRBG 030625Z AUTO 00000KT 9SM OVC015 10/09 A3025 RMK AO2 T01000089
KRBG 030553Z AUTO 00000KT 7SM OVC014 10/09 A3026 RMK AO2 SLP248 60000 T01000089 10111 20100 50002
KRBG 030536Z AUTO 00000KT 9SM OVC014 10/09 A3026 RMK AO2 T01000089
KRBG 030453Z AUTO 00000KT 9SM OVC015 10/09 A3026 RMK AO2 SLP249 T01000089
KRBG 030410Z AUTO 00000KT 10SM FEW009 OVC015 10/09 A3026 RMK AO2 T01000089
KRBG 030353Z AUTO 00000KT 10SM OVC016 10/09 A3026 RMK AO2 SLP250 T01000094
KRBG 030253Z AUTO 00000KT 10SM OVC015 10/09 A3025 RMK AO2 SLP246 60000 T01000094 58003
KRBG 030232Z AUTO 00000KT 10SM OVC015 10/09 A3026 RMK AO2 T01000094
KRBG 030153Z AUTO 26003KT 10SM OVC011 10/09 A3026 RMK AO2 RAB11E21 SLP249 P0000 T01000094
KRBG 030134Z AUTO 24004KT 9SM BKN010 OVC014 10/09 A3025 RMK AO2 RAB11E21 CIG 007V011 P0000 T01000094
KRBG 030053Z AUTO 00000KT 6SM BR OVC009 10/09 A3026 RMK AO2 CIG 007V013 SLP249 T01000094
KRBG 022353Z AUTO 00000KT 10SM OVC013 11/08 A3026 RMK AO2 SLP249 T01110083 10111 20094 56003
KRBG 022253Z AUTO 00000KT 10SM OVC013 11/08 A3026 RMK AO2 SLP249 T01110083
KRBG 022153Z AUTO 07003KT 10SM OVC011 11/08 A3026 RMK AO2 SLP249 T01060083
KRBG 022108Z AUTO 24003KT 10SM OVC013 11/09 A3027 RMK AO2 T01060089
KRBG 022053Z AUTO 22003KT 10SM OVC015 11/08 A3027 RMK AO2 SLP252 T01060083 58014
KRBG 022034Z AUTO 00000KT 10SM SCT009 OVC015 11/08 A3028 RMK AO2 T01060083
KRBG 021953Z AUTO 00000KT 10SM BKN007 OVC015 10/08 A3028 RMK AO2 SLP256 T01000083
KRBG 021853Z AUTO 00000KT 10SM OVC009 10/08 A3030 RMK AO2 CIG 006V010 SLP262 T01000083
KRBG 021845Z AUTO 00000KT 10SM OVC009 10/08 A3030 RMK AO2 CIG 006V010 T01000083
KRBG 021832Z AUTO 00000KT 10SM OVC010 10/08 A3031 RMK AO2 T01000083
KRBG 021753Z AUTO 00000KT 10SM OVC007 09/08 A3031 RMK AO2 SLP266 T00940078 10094 20083 53013
KRBG 021653Z AUTO 00000KT 6SM BR OVC008 09/08 A3030 RMK AO2 SLP262 T00890078
KRBG 021553Z AUTO 00000KT 10SM OVC008 09/08 A3028 RMK AO2 SLP255 T00940078
KRBG 021453Z AUTO 31005KT 10SM OVC009 09/08 A3027 RMK AO2 SLP253 T00890078 53016
KRBG 021426Z AUTO 36006KT 10SM SCT003 OVC007 08/08 A3027 RMK AO2 CIG 005V010 T00830078
KRBG 021353Z AUTO 30003KT 10SM OVC003 08/08 A3024 RMK AO2 SLP242 T00830083
KRBG 021337Z AUTO 00000KT 4SM BR OVC002 08/08 A3024 RMK AO2 T00830083
KRBG 021330Z AUTO 30003KT 2 1/2SM BR OVC002 08/08 A3024 RMK AO2 T00830083
KRBG 021301Z AUTO 31003KT 1 1/4SM BR OVC002 08/08 A3024 RMK AO2 T00830083
KRBG 021253Z AUTO 31003KT 3/4SM BR VV002 08/08 A3023 RMK AO2 SLP239 T00830083
KRBG 021236Z AUTO 00000KT 1/2SM FG VV002 08/08 A3023 RMK AO2 T00830078
KRBG 021153Z AUTO 00000KT 1/4SM FG VV002 08/08 A3023 RMK AO2 SLP236 T00830083 10089 20072 50006
KRBG 021053Z AUTO 00000KT 1/4SM FG VV002 08/08 A3023 RMK AO2 SLP237 T00830083
KRBG 021042Z AUTO 00000KT 1/4SM FG VV002 08/08 A3023 RMK AO2 T00830083
KRBG 020953Z AUTO 00000KT 1/4SM FG VV001 08/08 A3021 RMK AO2 SLP232 T00830083
KRBG 020922Z AUTO 00000KT 1/4SM FG VV001 08/08 A3020 RMK AO2 T00830083
KRBG 020853Z AUTO 00000KT 1/4SM FG VV002 08/08 A3021 RMK AO2 SLP231 T00830078 55000
KRBG 020829Z AUTO 00000KT 1/4SM FG VV002 08/08 A3020 RMK AO2 T00780078
KRBG 020810Z AUTO 00000KT 1/2SM FG VV002 08/08 A3021 RMK AO2 T00830078
KRBG 020753Z AUTO 01003KT 1/4SM FG VV002 08/08 A3021 RMK AO2 SLP230 T00780078 401560067
KRBG 020732Z AUTO 00000KT 1/4SM FG VV002 08/07 A3021 RMK AO2 T00780072
KRBG 020720Z AUTO 00000KT 1/2SM FG VV001 08/07 A3021 RMK AO2 T00780072
KRBG 020653Z AUTO 00000KT 1/4SM FG VV001 08/08 A3020 RMK AO2 SLP230 T00780078
KRBG 020642Z AUTO 00000KT 3/4SM BR VV001 08/08 A3021 RMK AO2 T00780078
KRBG 020639Z AUTO 00000KT 2 1/2SM BR BKN001 08/07 A3021 RMK AO2 T00780072
KRBG 020632Z AUTO 00000KT 7SM SCT001 07/07 A3021 RMK AO2 T00720067
KRBG 020553Z AUTO 34003KT 10SM CLR 09/08 A3021 RMK AO2 SLP231 T00890078 10156 20083 53015
KRBG 020453Z AUTO 00000KT 10SM CLR 09/08 A3019 RMK AO2 SLP225 T00940083